RAM973 LEMD-GMMN
Flight info
| Callsign | RAM973 |
|---|---|
| Flight time | 1h 29m |
| Altitude | 37000 |
| Route | VTB N10 CRISA/N0464F370 N10 LINTO UN10 BARIS UB11 TUSOR |
| Aircraft | B738/M-SDE2E3FGHIRWXY/LB1 |
Departure
| Time | 2026-05-04 20:37 |
|---|---|
| Airport | Adolfo Suárez Madrid–Barajas Airport (LEMD) |
Arrival
| Time | 2026-05-04 22:06 |
|---|---|
| Airport | Mohammed V International Airport (GMMN) |
| Time | Latitude | Longitude | Altitude | Speed | Heading |
|---|---|---|---|---|---|
| 2026-05-04 20:17 | 40.48798 | -3.58958 | 2021 ft | 0 kts | 270° |
| 2026-05-04 20:28 | 40.48798 | -3.58931 | 2031 ft | 4 kts | 269° |
| 2026-05-04 20:28 | 40.48798 | -3.58904 | 2028 ft | 4 kts | 284° |
| 2026-05-04 20:29 | 40.48785 | -3.58878 | 2026 ft | 4 kts | 326° |
| 2026-05-04 20:29 | 40.48771 | -3.58866 | 2033 ft | 0 kts | 328° |
| 2026-05-04 20:32 | 40.48777 | -3.58870 | 2033 ft | 3 kts | 335° |
| 2026-05-04 20:32 | 40.48818 | -3.58877 | 2023 ft | 9 kts | 358° |
| 2026-05-04 20:32 | 40.48904 | -3.58880 | 2021 ft | 15 kts | 358° |
| 2026-05-04 20:32 | 40.49007 | -3.58883 | 2021 ft | 15 kts | 2° |
| 2026-05-04 20:33 | 40.49108 | -3.58881 | 2021 ft | 14 kts | 360° |
| 2026-05-04 20:33 | 40.49194 | -3.58884 | 2021 ft | 9 kts | 358° |
| 2026-05-04 20:33 | 40.49237 | -3.58837 | 2031 ft | 9 kts | 76° |
| 2026-05-04 20:33 | 40.49241 | -3.58759 | 2030 ft | 8 kts | 88° |
| 2026-05-04 20:34 | 40.49240 | -3.58683 | 2021 ft | 8 kts | 91° |
| 2026-05-04 20:34 | 40.49242 | -3.58609 | 2030 ft | 9 kts | 88° |
| 2026-05-04 20:34 | 40.49242 | -3.58508 | 2016 ft | 15 kts | 89° |
| 2026-05-04 20:34 | 40.49242 | -3.58344 | 2010 ft | 21 kts | 90° |
| 2026-05-04 20:35 | 40.49242 | -3.58131 | 2003 ft | 24 kts | 89° |
| 2026-05-04 20:35 | 40.49242 | -3.57908 | 1997 ft | 25 kts | 89° |
| 2026-05-04 20:35 | 40.49245 | -3.57693 | 1988 ft | 23 kts | 89° |
| 2026-05-04 20:35 | 40.49270 | -3.57545 | 1987 ft | 15 kts | 65° |
| 2026-05-04 20:36 | 40.49345 | -3.57459 | 1983 ft | 16 kts | 11° |
| 2026-05-04 20:36 | 40.49473 | -3.57457 | 1983 ft | 21 kts | 357° |
| 2026-05-04 20:36 | 40.49846 | -3.57463 | 1983 ft | 96 kts | 360° |
| 2026-05-04 20:36 | 40.50780 | -3.57483 | 1998 ft | 169 kts | 354° |
| 2026-05-04 20:37 | 40.52097 | -3.57516 | 2430 ft | 202 kts | 358° |
| 2026-05-04 20:37 | 40.53477 | -3.57472 | 3480 ft | 199 kts | 1° |
| 2026-05-04 20:37 | 40.54875 | -3.57380 | 4290 ft | 201 kts | 2° |
| 2026-05-04 20:37 | 40.56250 | -3.57340 | 5052 ft | 198 kts | 349° |
| 2026-05-04 20:38 | 40.57566 | -3.57979 | 5519 ft | 209 kts | 327° |
| 2026-05-04 20:38 | 40.58645 | -3.59233 | 6240 ft | 201 kts | 306° |
| 2026-05-04 20:38 | 40.59297 | -3.60810 | 6945 ft | 200 kts | 290° |
| 2026-05-04 20:38 | 40.59886 | -3.62574 | 7264 ft | 217 kts | 298° |
| 2026-05-04 20:39 | 40.60876 | -3.64132 | 7763 ft | 227 kts | 315° |
| 2026-05-04 20:39 | 40.62056 | -3.65546 | 8347 ft | 232 kts | 315° |
| 2026-05-04 20:39 | 40.63281 | -3.66958 | 9005 ft | 237 kts | 316° |
| 2026-05-04 20:39 | 40.64487 | -3.68445 | 9769 ft | 237 kts | 302° |
| 2026-05-04 20:40 | 40.65080 | -3.70379 | 10521 ft | 230 kts | 272° |
| 2026-05-04 20:40 | 40.64898 | -3.72478 | 11092 ft | 235 kts | 248° |
| 2026-05-04 20:40 | 40.64082 | -3.74348 | 11813 ft | 238 kts | 234° |
| 2026-05-04 20:40 | 40.62956 | -3.75954 | 12580 ft | 242 kts | 215° |
| 2026-05-04 20:41 | 40.61345 | -3.76842 | 12942 ft | 267 kts | 193° |
| 2026-05-04 20:41 | 40.59394 | -3.76994 | 13157 ft | 294 kts | 184° |
| 2026-05-04 20:41 | 40.57261 | -3.76963 | 13358 ft | 319 kts | 182° |
| 2026-05-04 20:41 | 40.54958 | -3.76887 | 13533 ft | 341 kts | 182° |
| 2026-05-04 20:42 | 40.52506 | -3.76800 | 13743 ft | 361 kts | 182° |
| 2026-05-04 20:42 | 40.49959 | -3.76713 | 14237 ft | 370 kts | 182° |
| 2026-05-04 20:42 | 40.47378 | -3.76631 | 14886 ft | 373 kts | 182° |
| 2026-05-04 20:42 | 40.44774 | -3.76556 | 15575 ft | 375 kts | 182° |
| 2026-05-04 20:43 | 40.42151 | -3.76487 | 16209 ft | 379 kts | 183° |
| 2026-05-04 20:43 | 40.39537 | -3.76424 | 16791 ft | 383 kts | 183° |
| 2026-05-04 20:43 | 40.36859 | -3.76362 | 17405 ft | 387 kts | 183° |
| 2026-05-04 20:43 | 40.34157 | -3.76302 | 18005 ft | 391 kts | 184° |
| 2026-05-04 20:44 | 40.31422 | -3.76242 | 18555 ft | 394 kts | 184° |
| 2026-05-04 20:44 | 40.28669 | -3.76181 | 19104 ft | 397 kts | 184° |
| 2026-05-04 20:44 | 40.25897 | -3.76120 | 19669 ft | 399 kts | 184° |
| 2026-05-04 20:44 | 40.23116 | -3.76058 | 20214 ft | 402 kts | 184° |
| 2026-05-04 20:45 | 40.20312 | -3.75997 | 20741 ft | 404 kts | 184° |
| 2026-05-04 20:45 | 40.17491 | -3.75935 | 21244 ft | 407 kts | 184° |
| 2026-05-04 20:45 | 40.14650 | -3.75873 | 21768 ft | 409 kts | 184° |
| 2026-05-04 20:45 | 40.11794 | -3.75811 | 22267 ft | 412 kts | 185° |
| 2026-05-04 20:46 | 40.08914 | -3.75748 | 22757 ft | 415 kts | 185° |
| 2026-05-04 20:46 | 40.07003 | -3.75706 | 23068 ft | 417 kts | 185° |
| 2026-05-04 20:46 | 40.04092 | -3.75643 | 23521 ft | 420 kts | 185° |
| 2026-05-04 20:46 | 40.01164 | -3.75580 | 23910 ft | 422 kts | 185° |
| 2026-05-04 20:47 | 39.98219 | -3.75515 | 24293 ft | 424 kts | 185° |
| 2026-05-04 20:47 | 39.95263 | -3.75451 | 24649 ft | 426 kts | 185° |
| 2026-05-04 20:47 | 39.92292 | -3.75386 | 25018 ft | 428 kts | 186° |
| 2026-05-04 20:47 | 39.89299 | -3.75321 | 25378 ft | 430 kts | 186° |
| 2026-05-04 20:48 | 39.86296 | -3.75256 | 25726 ft | 433 kts | 186° |
| 2026-05-04 20:48 | 39.83275 | -3.75191 | 26064 ft | 435 kts | 186° |
| 2026-05-04 20:48 | 39.80235 | -3.75125 | 26396 ft | 437 kts | 186° |
| 2026-05-04 20:48 | 39.77188 | -3.75059 | 26730 ft | 439 kts | 186° |
| 2026-05-04 20:49 | 39.74120 | -3.74992 | 27023 ft | 442 kts | 186° |
| 2026-05-04 20:49 | 39.71071 | -3.74926 | 27275 ft | 445 kts | 186° |
| 2026-05-04 20:49 | 39.67963 | -3.74859 | 27561 ft | 447 kts | 186° |
| 2026-05-04 20:49 | 39.64841 | -3.74790 | 27877 ft | 449 kts | 186° |
| 2026-05-04 20:50 | 39.61710 | -3.74727 | 28169 ft | 451 kts | 188° |
| 2026-05-04 20:50 | 39.58642 | -3.75164 | 28406 ft | 438 kts | 202° |
| 2026-05-04 20:50 | 39.55860 | -3.76607 | 28867 ft | 424 kts | 214° |
| 2026-05-04 20:50 | 39.53426 | -3.78671 | 29418 ft | 412 kts | 225° |
| 2026-05-04 20:51 | 39.51408 | -3.81250 | 29873 ft | 406 kts | 230° |
| 2026-05-04 20:51 | 39.49440 | -3.83881 | 30176 ft | 407 kts | 231° |
| 2026-05-04 20:51 | 39.47461 | -3.86505 | 30477 ft | 407 kts | 230° |
| 2026-05-04 20:51 | 39.45476 | -3.89117 | 30841 ft | 406 kts | 230° |
| 2026-05-04 20:52 | 39.43496 | -3.91708 | 31239 ft | 404 kts | 230° |
| 2026-05-04 20:52 | 39.41520 | -3.94283 | 31560 ft | 403 kts | 230° |
| 2026-05-04 20:52 | 39.39543 | -3.96855 | 31876 ft | 403 kts | 230° |
| 2026-05-04 20:52 | 39.37569 | -3.99419 | 32221 ft | 402 kts | 230° |
| 2026-05-04 20:53 | 39.35655 | -4.01902 | 32570 ft | 400 kts | 230° |
| 2026-05-04 20:53 | 39.33692 | -4.04446 | 32887 ft | 400 kts | 230° |
| 2026-05-04 20:53 | 39.31753 | -4.06958 | 33190 ft | 399 kts | 230° |
| 2026-05-04 20:53 | 39.29795 | -4.09492 | 33513 ft | 398 kts | 231° |
| 2026-05-04 20:54 | 39.27838 | -4.12022 | 33819 ft | 397 kts | 231° |
| 2026-05-04 20:54 | 39.25883 | -4.14549 | 34049 ft | 398 kts | 231° |
| 2026-05-04 20:54 | 39.23925 | -4.17079 | 34247 ft | 399 kts | 231° |
| 2026-05-04 20:54 | 39.21964 | -4.19608 | 34504 ft | 399 kts | 231° |
| 2026-05-04 20:55 | 39.20001 | -4.22139 | 34755 ft | 398 kts | 231° |
| 2026-05-04 20:55 | 39.18039 | -4.24665 | 34964 ft | 399 kts | 230° |
| 2026-05-04 20:55 | 39.16074 | -4.27194 | 35169 ft | 399 kts | 230° |
| 2026-05-04 20:55 | 39.14106 | -4.29725 | 35373 ft | 400 kts | 230° |
| 2026-05-04 20:56 | 39.12135 | -4.32258 | 35562 ft | 401 kts | 230° |
| 2026-05-04 20:56 | 39.10152 | -4.34803 | 35724 ft | 402 kts | 230° |
| 2026-05-04 20:56 | 39.08172 | -4.37342 | 35970 ft | 401 kts | 230° |
| 2026-05-04 20:56 | 39.06221 | -4.39841 | 36203 ft | 400 kts | 230° |
| 2026-05-04 20:57 | 39.04243 | -4.42374 | 36406 ft | 401 kts | 230° |
| 2026-05-04 20:57 | 39.02269 | -4.44900 | 36574 ft | 400 kts | 230° |
| 2026-05-04 20:57 | 39.00295 | -4.47423 | 36832 ft | 399 kts | 230° |
| 2026-05-04 20:57 | 38.98330 | -4.49934 | 37030 ft | 399 kts | 230° |
| 2026-05-04 20:58 | 38.96361 | -4.52449 | 37207 ft | 400 kts | 230° |
| 2026-05-04 20:58 | 38.94387 | -4.54965 | 37413 ft | 399 kts | 230° |
| 2026-05-04 20:58 | 38.92414 | -4.57478 | 37621 ft | 399 kts | 230° |
| 2026-05-04 20:58 | 38.90439 | -4.59988 | 37810 ft | 399 kts | 230° |
| 2026-05-04 20:59 | 38.88466 | -4.62495 | 37991 ft | 399 kts | 230° |
| 2026-05-04 20:59 | 38.86491 | -4.65001 | 38219 ft | 399 kts | 230° |
| 2026-05-04 20:59 | 38.84523 | -4.67497 | 38446 ft | 398 kts | 230° |
| 2026-05-04 20:59 | 38.82552 | -4.69995 | 38620 ft | 398 kts | 230° |
| 2026-05-04 21:00 | 38.80581 | -4.72493 | 38763 ft | 398 kts | 230° |
| 2026-05-04 21:00 | 38.78611 | -4.74987 | 38879 ft | 398 kts | 229° |
| 2026-05-04 21:00 | 38.76641 | -4.77478 | 39006 ft | 398 kts | 229° |
| 2026-05-04 21:00 | 38.74689 | -4.79947 | 39024 ft | 399 kts | 230° |
| 2026-05-04 21:01 | 38.70730 | -4.84944 | 39026 ft | 398 kts | 230° |
| 2026-05-04 21:01 | 38.66792 | -4.89907 | 39028 ft | 396 kts | 230° |
| 2026-05-04 21:02 | 38.62864 | -4.94850 | 39026 ft | 395 kts | 230° |
| 2026-05-04 21:02 | 38.58948 | -4.99771 | 39028 ft | 394 kts | 230° |
| 2026-05-04 21:03 | 38.55092 | -5.04610 | 39028 ft | 394 kts | 230° |
| 2026-05-04 21:03 | 38.51065 | -5.09357 | 39026 ft | 397 kts | 223° |
| 2026-05-04 21:04 | 38.46243 | -5.12901 | 39046 ft | 406 kts | 213° |
| 2026-05-04 21:04 | 38.41142 | -5.16023 | 39040 ft | 407 kts | 213° |
| 2026-05-04 21:05 | 38.36040 | -5.19160 | 39041 ft | 407 kts | 213° |
| 2026-05-04 21:05 | 38.30928 | -5.22319 | 39038 ft | 408 kts | 213° |
| 2026-05-04 21:06 | 38.25823 | -5.25478 | 39043 ft | 408 kts | 213° |
| 2026-05-04 21:06 | 38.20703 | -5.28643 | 39033 ft | 408 kts | 213° |
| 2026-05-04 21:07 | 38.15621 | -5.31780 | 39031 ft | 409 kts | 213° |
| 2026-05-04 21:07 | 38.10492 | -5.34941 | 39046 ft | 410 kts | 213° |
| 2026-05-04 21:08 | 38.05358 | -5.38099 | 39009 ft | 410 kts | 213° |
| 2026-05-04 21:08 | 38.00224 | -5.41252 | 39040 ft | 410 kts | 213° |
| 2026-05-04 21:09 | 37.95096 | -5.44396 | 39044 ft | 410 kts | 213° |
| 2026-05-04 21:09 | 37.89956 | -5.47545 | 39038 ft | 410 kts | 213° |
| 2026-05-04 21:10 | 37.84813 | -5.50689 | 39044 ft | 410 kts | 213° |
| 2026-05-04 21:10 | 37.79670 | -5.53828 | 39034 ft | 410 kts | 213° |
| 2026-05-04 21:11 | 37.74526 | -5.56964 | 39031 ft | 410 kts | 213° |
| 2026-05-04 21:11 | 37.69417 | -5.60073 | 39043 ft | 410 kts | 213° |
| 2026-05-04 21:12 | 37.64276 | -5.63197 | 39038 ft | 410 kts | 213° |
| 2026-05-04 21:12 | 37.59132 | -5.66318 | 39039 ft | 409 kts | 213° |
| 2026-05-04 21:13 | 37.54007 | -5.69423 | 39039 ft | 408 kts | 213° |
| 2026-05-04 21:13 | 37.48892 | -5.72518 | 39044 ft | 408 kts | 213° |
| 2026-05-04 21:14 | 37.43743 | -5.75531 | 39044 ft | 413 kts | 208° |
| 2026-05-04 21:14 | 37.38081 | -5.77184 | 39057 ft | 426 kts | 197° |
| 2026-05-04 21:15 | 37.32199 | -5.78202 | 39029 ft | 427 kts | 197° |
| 2026-05-04 21:15 | 37.26314 | -5.79226 | 39041 ft | 426 kts | 197° |
| 2026-05-04 21:16 | 37.20436 | -5.80277 | 39044 ft | 426 kts | 197° |
| 2026-05-04 21:16 | 37.14556 | -5.81341 | 39047 ft | 426 kts | 197° |
| 2026-05-04 21:17 | 37.08711 | -5.82399 | 39027 ft | 427 kts | 197° |
| 2026-05-04 21:17 | 37.02830 | -5.83461 | 39053 ft | 427 kts | 197° |
| 2026-05-04 21:18 | 36.96949 | -5.84522 | 39065 ft | 427 kts | 197° |
| 2026-05-04 21:18 | 36.91050 | -5.85584 | 39069 ft | 428 kts | 197° |
| 2026-05-04 21:19 | 36.85149 | -5.86645 | 39072 ft | 429 kts | 197° |
| 2026-05-04 21:19 | 36.79240 | -5.87704 | 39068 ft | 429 kts | 197° |
| 2026-05-04 21:20 | 36.73331 | -5.88762 | 39079 ft | 429 kts | 197° |
| 2026-05-04 21:20 | 36.67408 | -5.89822 | 39073 ft | 430 kts | 197° |
| 2026-05-04 21:21 | 36.61489 | -5.90879 | 39080 ft | 430 kts | 197° |
| 2026-05-04 21:21 | 36.55609 | -5.91927 | 39073 ft | 429 kts | 197° |
| 2026-05-04 21:22 | 36.49689 | -5.92980 | 39080 ft | 428 kts | 197° |
| 2026-05-04 21:22 | 36.43782 | -5.94031 | 39076 ft | 428 kts | 197° |
| 2026-05-04 21:23 | 36.37877 | -5.95080 | 39080 ft | 428 kts | 197° |
| 2026-05-04 21:23 | 36.32009 | -5.96120 | 39074 ft | 428 kts | 197° |
| 2026-05-04 21:24 | 36.26122 | -5.97162 | 39075 ft | 427 kts | 197° |
| 2026-05-04 21:24 | 36.20103 | -5.97472 | 39104 ft | 440 kts | 187° |
| 2026-05-04 21:25 | 36.13976 | -5.97083 | 39095 ft | 440 kts | 187° |
| 2026-05-04 21:25 | 36.07856 | -5.96717 | 39080 ft | 439 kts | 187° |
| 2026-05-04 21:26 | 36.01759 | -5.96393 | 39086 ft | 438 kts | 187° |
| 2026-05-04 21:26 | 35.95717 | -5.96083 | 39095 ft | 438 kts | 187° |
| 2026-05-04 21:27 | 35.89625 | -5.95770 | 39091 ft | 438 kts | 187° |
| 2026-05-04 21:27 | 35.83515 | -5.95368 | 39100 ft | 445 kts | 182° |
| 2026-05-04 21:28 | 35.80436 | -5.94576 | 39099 ft | 457 kts | 173° |
| 2026-05-04 21:28 | 35.77390 | -5.93428 | 39107 ft | 459 kts | 172° |
| 2026-05-04 21:28 | 35.71261 | -5.91765 | 39098 ft | 439 kts | 188° |
| 2026-05-04 21:29 | 35.65190 | -5.91770 | 39099 ft | 436 kts | 190° |
| 2026-05-04 21:29 | 35.59158 | -5.91802 | 39083 ft | 437 kts | 189° |
| 2026-05-04 21:30 | 35.53073 | -5.91772 | 39094 ft | 438 kts | 189° |
| 2026-05-04 21:30 | 35.46971 | -5.91722 | 39097 ft | 438 kts | 189° |
| 2026-05-04 21:31 | 35.37811 | -5.91678 | 39091 ft | 438 kts | 190° |
| 2026-05-04 21:32 | 35.31720 | -5.91851 | 39085 ft | 437 kts | 191° |
| 2026-05-04 21:32 | 35.25632 | -5.92058 | 39085 ft | 438 kts | 191° |
| 2026-05-04 21:33 | 35.19539 | -5.92241 | 39099 ft | 438 kts | 191° |
| 2026-05-04 21:33 | 35.14469 | -5.92383 | 39098 ft | 438 kts | 191° |
| 2026-05-04 21:34 | 35.07396 | -5.92579 | 39086 ft | 437 kts | 191° |
| 2026-05-04 21:34 | 35.01329 | -5.92748 | 39089 ft | 436 kts | 191° |
| 2026-05-04 21:35 | 34.96288 | -5.92888 | 39090 ft | 435 kts | 191° |
| 2026-05-04 21:35 | 34.93261 | -5.93131 | 39079 ft | 424 kts | 200° |
| 2026-05-04 21:35 | 34.90478 | -5.94088 | 39100 ft | 409 kts | 210° |
| 2026-05-04 21:36 | 34.85731 | -5.97470 | 39092 ft | 391 kts | 226° |
| 2026-05-04 21:36 | 34.81606 | -6.01628 | 39079 ft | 391 kts | 226° |
| 2026-05-04 21:37 | 34.77402 | -6.05843 | 39091 ft | 392 kts | 225° |
| 2026-05-04 21:37 | 34.73170 | -6.10049 | 39085 ft | 393 kts | 225° |
| 2026-05-04 21:38 | 34.68916 | -6.14256 | 39088 ft | 394 kts | 225° |
| 2026-05-04 21:38 | 34.64655 | -6.18463 | 39087 ft | 395 kts | 225° |
| 2026-05-04 21:39 | 34.60381 | -6.22677 | 39088 ft | 396 kts | 225° |
| 2026-05-04 21:39 | 34.56074 | -6.26923 | 38581 ft | 403 kts | 225° |
| 2026-05-04 21:39 | 34.53906 | -6.29054 | 38001 ft | 399 kts | 225° |
| 2026-05-04 21:40 | 34.51755 | -6.31166 | 37450 ft | 397 kts | 224° |
| 2026-05-04 21:40 | 34.49478 | -6.33083 | 36842 ft | 403 kts | 213° |
| 2026-05-04 21:40 | 34.46830 | -6.34349 | 36059 ft | 416 kts | 203° |
| 2026-05-04 21:40 | 34.44076 | -6.35313 | 35399 ft | 418 kts | 202° |
| 2026-05-04 21:41 | 34.41262 | -6.36256 | 34732 ft | 420 kts | 201° |
| 2026-05-04 21:41 | 34.38435 | -6.37202 | 34036 ft | 423 kts | 201° |
| 2026-05-04 21:41 | 34.35596 | -6.38164 | 33322 ft | 423 kts | 201° |
| 2026-05-04 21:41 | 34.32775 | -6.39131 | 32837 ft | 418 kts | 201° |
| 2026-05-04 21:42 | 34.29990 | -6.40096 | 32312 ft | 415 kts | 201° |
| 2026-05-04 21:42 | 34.27227 | -6.41060 | 31858 ft | 410 kts | 201° |
| 2026-05-04 21:42 | 34.24497 | -6.42016 | 31390 ft | 407 kts | 202° |
| 2026-05-04 21:42 | 34.21787 | -6.42966 | 30928 ft | 404 kts | 202° |
| 2026-05-04 21:43 | 34.19096 | -6.43909 | 30471 ft | 401 kts | 202° |
| 2026-05-04 21:43 | 34.16437 | -6.44840 | 29995 ft | 398 kts | 202° |
| 2026-05-04 21:43 | 34.13763 | -6.45776 | 29141 ft | 402 kts | 201° |
| 2026-05-04 21:43 | 34.11056 | -6.46726 | 28325 ft | 406 kts | 201° |
| 2026-05-04 21:44 | 34.08343 | -6.47672 | 27695 ft | 405 kts | 201° |
| 2026-05-04 21:44 | 34.05644 | -6.48613 | 27158 ft | 402 kts | 201° |
| 2026-05-04 21:44 | 34.02997 | -6.49534 | 26659 ft | 399 kts | 201° |
| 2026-05-04 21:44 | 34.00346 | -6.50456 | 26184 ft | 395 kts | 201° |
| 2026-05-04 21:45 | 33.97752 | -6.51476 | 25699 ft | 387 kts | 210° |
| 2026-05-04 21:45 | 33.95543 | -6.53205 | 25255 ft | 375 kts | 225° |
| 2026-05-04 21:45 | 33.93662 | -6.55351 | 24819 ft | 370 kts | 228° |
| 2026-05-04 21:45 | 33.91839 | -6.57528 | 24348 ft | 368 kts | 228° |
| 2026-05-04 21:46 | 33.90034 | -6.59698 | 23901 ft | 366 kts | 228° |
| 2026-05-04 21:46 | 33.88230 | -6.61855 | 23381 ft | 364 kts | 228° |
| 2026-05-04 21:46 | 33.86435 | -6.63985 | 22891 ft | 361 kts | 227° |
| 2026-05-04 21:46 | 33.84647 | -6.66094 | 22431 ft | 358 kts | 227° |
| 2026-05-04 21:47 | 33.82872 | -6.68178 | 21965 ft | 355 kts | 227° |
| 2026-05-04 21:47 | 33.81107 | -6.70245 | 21526 ft | 352 kts | 227° |
| 2026-05-04 21:47 | 33.79356 | -6.72293 | 21089 ft | 349 kts | 227° |
| 2026-05-04 21:47 | 33.77623 | -6.74319 | 20656 ft | 347 kts | 227° |
| 2026-05-04 21:48 | 33.75922 | -6.76305 | 20209 ft | 344 kts | 226° |
| 2026-05-04 21:48 | 33.74208 | -6.78306 | 19791 ft | 342 kts | 226° |
| 2026-05-04 21:48 | 33.72507 | -6.80291 | 19379 ft | 339 kts | 226° |
| 2026-05-04 21:48 | 33.70818 | -6.82261 | 18972 ft | 338 kts | 226° |
| 2026-05-04 21:49 | 33.69134 | -6.84224 | 18538 ft | 337 kts | 226° |
| 2026-05-04 21:49 | 33.67456 | -6.86178 | 18063 ft | 336 kts | 226° |
| 2026-05-04 21:49 | 33.65780 | -6.88122 | 17607 ft | 334 kts | 225° |
| 2026-05-04 21:49 | 33.63872 | -6.89715 | 17156 ft | 337 kts | 207° |
| 2026-05-04 21:50 | 33.61681 | -6.90695 | 16764 ft | 336 kts | 202° |
| 2026-05-04 21:50 | 33.59467 | -6.91560 | 16350 ft | 334 kts | 201° |
| 2026-05-04 21:50 | 33.57256 | -6.92399 | 15943 ft | 332 kts | 201° |
| 2026-05-04 21:50 | 33.55056 | -6.93238 | 15533 ft | 331 kts | 201° |
| 2026-05-04 21:51 | 33.52869 | -6.94080 | 15123 ft | 329 kts | 201° |
| 2026-05-04 21:51 | 33.50693 | -6.94926 | 14722 ft | 328 kts | 201° |
| 2026-05-04 21:51 | 33.48531 | -6.95773 | 14324 ft | 327 kts | 201° |
| 2026-05-04 21:51 | 33.46373 | -6.96621 | 13918 ft | 326 kts | 201° |
| 2026-05-04 21:52 | 33.44249 | -6.97458 | 13481 ft | 325 kts | 201° |
| 2026-05-04 21:52 | 33.42110 | -6.98300 | 13060 ft | 323 kts | 201° |
| 2026-05-04 21:52 | 33.39983 | -6.99139 | 12649 ft | 321 kts | 201° |
| 2026-05-04 21:52 | 33.37867 | -6.99973 | 12256 ft | 319 kts | 201° |
| 2026-05-04 21:53 | 33.35830 | -7.00775 | 11871 ft | 318 kts | 201° |
| 2026-05-04 21:53 | 33.33734 | -7.01600 | 11461 ft | 316 kts | 201° |
| 2026-05-04 21:53 | 33.31651 | -7.02420 | 11077 ft | 314 kts | 201° |
| 2026-05-04 21:53 | 33.29576 | -7.03237 | 10729 ft | 312 kts | 200° |
| 2026-05-04 21:54 | 33.27553 | -7.04032 | 10602 ft | 301 kts | 201° |
| 2026-05-04 21:54 | 33.25586 | -7.04804 | 10470 ft | 292 kts | 201° |
| 2026-05-04 21:54 | 33.23680 | -7.05553 | 10334 ft | 284 kts | 201° |
| 2026-05-04 21:54 | 33.21830 | -7.06278 | 10225 ft | 275 kts | 201° |
| 2026-05-04 21:55 | 33.20050 | -7.07027 | 10073 ft | 267 kts | 209° |
| 2026-05-04 21:55 | 33.18662 | -7.08422 | 9808 ft | 260 kts | 236° |
| 2026-05-04 21:55 | 33.17863 | -7.10322 | 9541 ft | 256 kts | 254° |
| 2026-05-04 21:55 | 33.17496 | -7.12389 | 9274 ft | 254 kts | 259° |
| 2026-05-04 21:56 | 33.17195 | -7.14428 | 9016 ft | 252 kts | 259° |
| 2026-05-04 21:56 | 33.16894 | -7.16489 | 8728 ft | 251 kts | 259° |
| 2026-05-04 21:56 | 33.16589 | -7.18536 | 8454 ft | 250 kts | 259° |
| 2026-05-04 21:56 | 33.16277 | -7.20579 | 8182 ft | 249 kts | 259° |
| 2026-05-04 21:57 | 33.15964 | -7.22610 | 7919 ft | 248 kts | 259° |
| 2026-05-04 21:57 | 33.15649 | -7.24632 | 7646 ft | 247 kts | 259° |
| 2026-05-04 21:57 | 33.15334 | -7.26651 | 7384 ft | 247 kts | 259° |
| 2026-05-04 21:57 | 33.15021 | -7.28658 | 7115 ft | 246 kts | 259° |
| 2026-05-04 21:58 | 33.14707 | -7.30658 | 6860 ft | 245 kts | 259° |
| 2026-05-04 21:58 | 33.14394 | -7.32657 | 6586 ft | 245 kts | 259° |
| 2026-05-04 21:58 | 33.14082 | -7.34647 | 6311 ft | 244 kts | 260° |
| 2026-05-04 21:58 | 33.13770 | -7.36635 | 6057 ft | 242 kts | 259° |
| 2026-05-04 21:59 | 33.13464 | -7.38586 | 5955 ft | 238 kts | 260° |
| 2026-05-04 21:59 | 33.13160 | -7.40523 | 5846 ft | 237 kts | 259° |
| 2026-05-04 21:59 | 33.12856 | -7.42452 | 5745 ft | 235 kts | 259° |
| 2026-05-04 21:59 | 33.12558 | -7.44341 | 5643 ft | 228 kts | 260° |
| 2026-05-04 22:00 | 33.12273 | -7.46147 | 5533 ft | 221 kts | 260° |
| 2026-05-04 22:00 | 33.11990 | -7.47933 | 5346 ft | 218 kts | 261° |
| 2026-05-04 22:00 | 33.12048 | -7.49718 | 5114 ft | 213 kts | 294° |
| 2026-05-04 22:00 | 33.12972 | -7.50999 | 4839 ft | 209 kts | 331° |
| 2026-05-04 22:01 | 33.14322 | -7.51512 | 4621 ft | 201 kts | 348° |
| 2026-05-04 22:01 | 33.15673 | -7.51787 | 4440 ft | 191 kts | 349° |
| 2026-05-04 22:01 | 33.16924 | -7.52059 | 4306 ft | 178 kts | 347° |
| 2026-05-04 22:01 | 33.18108 | -7.52400 | 4118 ft | 172 kts | 345° |
| 2026-05-04 22:02 | 33.19231 | -7.52766 | 3930 ft | 163 kts | 345° |
| 2026-05-04 22:02 | 33.20347 | -7.53143 | 3694 ft | 168 kts | 345° |
| 2026-05-04 22:02 | 33.21472 | -7.53528 | 3469 ft | 168 kts | 345° |
| 2026-05-04 22:02 | 33.22604 | -7.53918 | 3237 ft | 169 kts | 346° |
| 2026-05-04 22:03 | 33.23723 | -7.54303 | 3009 ft | 167 kts | 346° |
| 2026-05-04 22:03 | 33.24842 | -7.54691 | 2790 ft | 167 kts | 347° |
| 2026-05-04 22:03 | 33.25927 | -7.55064 | 2552 ft | 156 kts | 348° |
| 2026-05-04 22:03 | 33.26931 | -7.55410 | 2359 ft | 146 kts | 348° |
| 2026-05-04 22:04 | 33.27901 | -7.55743 | 2168 ft | 145 kts | 348° |
| 2026-05-04 22:04 | 33.28881 | -7.56079 | 1977 ft | 148 kts | 348° |
| 2026-05-04 22:04 | 33.29878 | -7.56415 | 1741 ft | 148 kts | 348° |
| 2026-05-04 22:04 | 33.30858 | -7.56755 | 1509 ft | 144 kts | 346° |
| 2026-05-04 22:05 | 33.31812 | -7.57104 | 1307 ft | 146 kts | 346° |
| 2026-05-04 22:05 | 33.32788 | -7.57444 | 1193 ft | 146 kts | 348° |
| 2026-05-04 22:05 | 33.33764 | -7.57756 | 1013 ft | 146 kts | 346° |
| 2026-05-04 22:05 | 33.34725 | -7.58092 | 813 ft | 141 kts | 345° |
| 2026-05-04 22:06 | 33.35641 | -7.58418 | 646 ft | 134 kts | 346° |
| 2026-05-04 22:06 | 33.36449 | -7.58689 | 651 ft | 104 kts | 343° |
| 2026-05-04 22:06 | 33.37029 | -7.58890 | 654 ft | 70 kts | 343° |
| 2026-05-04 22:06 | 33.37380 | -7.59014 | 650 ft | 35 kts | 344° |
| 2026-05-04 22:07 | 33.37512 | -7.59060 | 649 ft | 12 kts | 343° |
| 2026-05-04 22:07 | 33.37645 | -7.59109 | 647 ft | 27 kts | 342° |
| 2026-05-04 22:07 | 33.37805 | -7.59108 | 644 ft | 17 kts | 49° |
| 2026-05-04 22:07 | 33.37834 | -7.59035 | 649 ft | 2 kts | 68° |
| 2026-05-04 22:08 | 33.37839 | -7.59022 | 648 ft | 2 kts | 69° |
| 2026-05-04 22:08 | 33.37843 | -7.59009 | 648 ft | 2 kts | 70° |
| 2026-05-04 22:08 | 33.37846 | -7.58997 | 649 ft | 1 kts | 71° |
| 2026-05-04 22:08 | 33.37849 | -7.58985 | 651 ft | 1 kts | 72° |
| 2026-05-04 22:09 | 33.37852 | -7.58975 | 650 ft | 1 kts | 72° |
| 2026-05-04 22:09 | 33.37855 | -7.58964 | 650 ft | 1 kts | 73° |
| 2026-05-04 22:09 | 33.37860 | -7.58944 | 651 ft | 8 kts | 76° |
| 2026-05-04 22:09 | 33.37880 | -7.58835 | 653 ft | 17 kts | 73° |
| 2026-05-04 22:10 | 33.37907 | -7.58697 | 652 ft | 17 kts | 90° |
| 2026-05-04 22:10 | 33.37860 | -7.58576 | 652 ft | 16 kts | 126° |
| 2026-05-04 22:10 | 33.37783 | -7.58483 | 652 ft | 16 kts | 152° |
| 2026-05-04 22:10 | 33.37681 | -7.58446 | 652 ft | 15 kts | 166° |
| 2026-05-04 22:11 | 33.37581 | -7.58430 | 652 ft | 14 kts | 164° |
| 2026-05-04 22:11 | 33.37487 | -7.58398 | 652 ft | 14 kts | 164° |
| 2026-05-04 22:11 | 33.37398 | -7.58368 | 654 ft | 13 kts | 164° |
| 2026-05-04 22:11 | 33.37311 | -7.58340 | 652 ft | 13 kts | 165° |
| 2026-05-04 22:12 | 33.37229 | -7.58311 | 652 ft | 12 kts | 149° |
| 2026-05-04 22:12 | 33.37230 | -7.58240 | 653 ft | 9 kts | 66° |
| 2026-05-04 22:12 | 33.37243 | -7.58205 | 652 ft | 0 kts | 65° |